sensor_id;sensor_type;location;lat;lon;timestamp;P1;durP1;ratioP1;P2;durP2;ratioP2
42226;SDS011;27892;52.378;13.122;2024-01-15T00:01:53;10.60;;;7.47;;
42226;SDS011;27892;52.378;13.122;2024-01-15T00:04:19;12.93;;;8.37;;
42226;SDS011;27892;52.378;13.122;2024-01-15T00:06:45;10.53;;;7.73;;
42226;SDS011;27892;52.378;13.122;2024-01-15T00:09:10;9.03;;;7.20;;
42226;SDS011;27892;52.378;13.122;2024-01-15T00:11:36;8.77;;;6.80;;
42226;SDS011;27892;52.378;13.122;2024-01-15T00:14:02;12.93;;;9.20;;
42226;SDS011;27892;52.378;13.122;2024-01-15T00:16:28;11.50;;;8.07;;
42226;SDS011;27892;52.378;13.122;2024-01-15T00:18:54;15.73;;;9.63;;
42226;SDS011;27892;52.378;13.122;2024-01-15T00:21:19;14.57;;;9.33;;
42226;SDS011;27892;52.378;13.122;2024-01-15T00:23:45;13.10;;;8.63;;
42226;SDS011;27892;52.378;13.122;2024-01-15T00:26:10;14.40;;;9.43;;
42226;SDS011;27892;52.378;13.122;2024-01-15T00:28:37;12.90;;;8.70;;
42226;SDS011;27892;52.378;13.122;2024-01-15T00:31:03;9.97;;;7.80;;
42226;SDS011;27892;52.378;13.122;2024-01-15T00:33:30;11.37;;;8.40;;
42226;SDS011;27892;52.378;13.122;2024-01-15T00:35:55;11.97;;;8.17;;
42226;SDS011;27892;52.378;13.122;2024-01-15T00:38:21;11.60;;;7.90;;
42226;SDS011;27892;52.378;13.122;2024-01-15T00:40:47;11.50;;;7.87;;
42226;SDS011;27892;52.378;13.122;2024-01-15T00:43:12;10.43;;;7.40;;
42226;SDS011;27892;52.378;13.122;2024-01-15T00:45:38;10.13;;;7.40;;
42226;SDS011;27892;52.378;13.122;2024-01-15T00:48:04;11.30;;;7.90;;
42226;SDS011;27892;52.378;13.122;2024-01-15T00:50:30;9.73;;;7.13;;
42226;SDS011;27892;52.378;13.122;2024-01-15T00:52:56;11.17;;;7.80;;
42226;SDS011;27892;52.378;13.122;2024-01-15T00:55:21;11.57;;;8.13;;
42226;SDS011;27892;52.378;13.122;2024-01-15T00:57:47;11.60;;;7.80;;
42226;SDS011;27892;52.378;13.122;2024-01-15T01:00:13;11.97;;;7.80;;
42226;SDS011;27892;52.378;13.122;2024-01-15T01:02:39;9.87;;;7.37;;
42226;SDS011;27892;52.378;13.122;2024-01-15T01:05:04;9.97;;;7.50;;
42226;SDS011;27892;52.378;13.122;2024-01-15T01:07:30;13.40;;;8.40;;
42226;SDS011;27892;52.378;13.122;2024-01-15T01:09:56;10.67;;;7.63;;
42226;SDS011;27892;52.378;13.122;2024-01-15T01:12:22;13.30;;;8.63;;
42226;SDS011;27892;52.378;13.122;2024-01-15T01:14:47;13.73;;;8.67;;
42226;SDS011;27892;52.378;13.122;2024-01-15T01:17:13;13.77;;;8.63;;
42226;SDS011;27892;52.378;13.122;2024-01-15T01:19:39;12.20;;;8.57;;
42226;SDS011;27892;52.378;13.122;2024-01-15T01:22:04;12.87;;;8.17;;
42226;SDS011;27892;52.378;13.122;2024-01-15T01:24:30;13.00;;;8.27;;
42226;SDS011;27892;52.378;13.122;2024-01-15T01:26:56;11.83;;;8.67;;
42226;SDS011;27892;52.378;13.122;2024-01-15T01:29:21;12.60;;;8.37;;
42226;SDS011;27892;52.378;13.122;2024-01-15T01:31:48;11.47;;;8.73;;
42226;SDS011;27892;52.378;13.122;2024-01-15T01:34:14;12.50;;;8.57;;
42226;SDS011;27892;52.378;13.122;2024-01-15T01:36:41;13.10;;;9.00;;
42226;SDS011;27892;52.378;13.122;2024-01-15T01:39:07;15.00;;;9.37;;
42226;SDS011;27892;52.378;13.122;2024-01-15T01:41:34;18.33;;;10.90;;
42226;SDS011;27892;52.378;13.122;2024-01-15T01:44:00;15.53;;;10.47;;
42226;SDS011;27892;52.378;13.122;2024-01-15T01:46:26;15.20;;;10.40;;
42226;SDS011;27892;52.378;13.122;2024-01-15T01:48:53;12.97;;;8.93;;
42226;SDS011;27892;52.378;13.122;2024-01-15T01:51:20;11.10;;;8.30;;
42226;SDS011;27892;52.378;13.122;2024-01-15T01:53:47;12.27;;;8.43;;
42226;SDS011;27892;52.378;13.122;2024-01-15T01:56:15;12.50;;;8.87;;
42226;SDS011;27892;52.378;13.122;2024-01-15T01:58:41;11.50;;;8.90;;
42226;SDS011;27892;52.378;13.122;2024-01-15T02:01:07;11.00;;;8.33;;
42226;SDS011;27892;52.378;13.122;2024-01-15T02:03:33;13.07;;;8.60;;
42226;SDS011;27892;52.378;13.122;2024-01-15T02:05:59;11.40;;;8.40;;
42226;SDS011;27892;52.378;13.122;2024-01-15T02:08:26;10.77;;;8.00;;
42226;SDS011;27892;52.378;13.122;2024-01-15T02:10:52;12.83;;;7.77;;
42226;SDS011;27892;52.378;13.122;2024-01-15T02:13:17;13.47;;;8.50;;
42226;SDS011;27892;52.378;13.122;2024-01-15T02:15:46;11.53;;;8.10;;
42226;SDS011;27892;52.378;13.122;2024-01-15T02:18:11;11.73;;;7.53;;
42226;SDS011;27892;52.378;13.122;2024-01-15T02:20:37;10.80;;;7.80;;
42226;SDS011;27892;52.378;13.122;2024-01-15T02:25:39;10.60;;;7.90;;
42226;SDS011;27892;52.378;13.122;2024-01-15T02:28:10;11.17;;;7.77;;
42226;SDS011;27892;52.378;13.122;2024-01-15T02:30:37;10.60;;;7.23;;
42226;SDS011;27892;52.378;13.122;2024-01-15T02:33:06;12.40;;;8.70;;
42226;SDS011;27892;52.378;13.122;2024-01-15T02:35:33;12.17;;;7.77;;
42226;SDS011;27892;52.378;13.122;2024-01-15T02:38:01;12.53;;;8.10;;
42226;SDS011;27892;52.378;13.122;2024-01-15T02:40:31;10.13;;;7.10;;
42226;SDS011;27892;52.378;13.122;2024-01-15T02:42:57;11.03;;;7.70;;
42226;SDS011;27892;52.378;13.122;2024-01-15T02:45:23;8.77;;;6.87;;
42226;SDS011;27892;52.378;13.122;2024-01-15T02:47:49;11.17;;;7.47;;
42226;SDS011;27892;52.378;13.122;2024-01-15T02:50:15;9.43;;;6.73;;
42226;SDS011;27892;52.378;13.122;2024-01-15T02:52:41;11.83;;;7.80;;
42226;SDS011;27892;52.378;13.122;2024-01-15T02:55:07;9.97;;;7.10;;
42226;SDS011;27892;52.378;13.122;2024-01-15T02:57:33;11.10;;;7.70;;
42226;SDS011;27892;52.378;13.122;2024-01-15T02:59:59;8.57;;;6.37;;
42226;SDS011;27892;52.378;13.122;2024-01-15T03:02:25;10.10;;;6.73;;
42226;SDS011;27892;52.378;13.122;2024-01-15T03:04:50;10.13;;;7.10;;
42226;SDS011;27892;52.378;13.122;2024-01-15T03:07:16;12.20;;;6.77;;
42226;SDS011;27892;52.378;13.122;2024-01-15T03:09:42;8.73;;;6.33;;
42226;SDS011;27892;52.378;13.122;2024-01-15T03:12:07;7.93;;;5.97;;
42226;SDS011;27892;52.378;13.122;2024-01-15T03:14:33;8.33;;;6.07;;
42226;SDS011;27892;52.378;13.122;2024-01-15T03:17:00;9.33;;;6.23;;
42226;SDS011;27892;52.378;13.122;2024-01-15T03:19:26;9.50;;;6.73;;
42226;SDS011;27892;52.378;13.122;2024-01-15T03:21:51;11.63;;;6.20;;
42226;SDS011;27892;52.378;13.122;2024-01-15T03:24:17;8.50;;;6.03;;
42226;SDS011;27892;52.378;13.122;2024-01-15T03:26:43;9.23;;;5.97;;
42226;SDS011;27892;52.378;13.122;2024-01-15T03:29:08;10.20;;;6.20;;
42226;SDS011;27892;52.378;13.122;2024-01-15T03:31:34;7.90;;;5.47;;
42226;SDS011;27892;52.378;13.122;2024-01-15T03:34:00;7.87;;;6.13;;
42226;SDS011;27892;52.378;13.122;2024-01-15T03:36:25;8.53;;;6.07;;
42226;SDS011;27892;52.378;13.122;2024-01-15T03:38:51;10.20;;;6.10;;
42226;SDS011;27892;52.378;13.122;2024-01-15T03:41:17;7.37;;;5.57;;
42226;SDS011;27892;52.378;13.122;2024-01-15T03:43:42;8.87;;;5.60;;
42226;SDS011;27892;52.378;13.122;2024-01-15T03:46:08;8.47;;;5.23;;
42226;SDS011;27892;52.378;13.122;2024-01-15T03:48:34;9.90;;;6.43;;
42226;SDS011;27892;52.378;13.122;2024-01-15T03:50:59;9.07;;;5.43;;
42226;SDS011;27892;52.378;13.122;2024-01-15T03:53:25;8.33;;;5.43;;
42226;SDS011;27892;52.378;13.122;2024-01-15T03:55:51;10.03;;;5.53;;
42226;SDS011;27892;52.378;13.122;2024-01-15T03:58:17;9.57;;;5.83;;
42226;SDS011;27892;52.378;13.122;2024-01-15T04:00:43;6.80;;;4.90;;
42226;SDS011;27892;52.378;13.122;2024-01-15T04:03:08;7.03;;;5.20;;
42226;SDS011;27892;52.378;13.122;2024-01-15T04:05:34;7.67;;;5.13;;
42226;SDS011;27892;52.378;13.122;2024-01-15T04:08:00;8.47;;;5.07;;
42226;SDS011;27892;52.378;13.122;2024-01-15T04:10:26;7.80;;;4.60;;
42226;SDS011;27892;52.378;13.122;2024-01-15T04:12:51;7.57;;;5.20;;
42226;SDS011;27892;52.378;13.122;2024-01-15T04:15:17;8.07;;;4.90;;
42226;SDS011;27892;52.378;13.122;2024-01-15T04:17:43;7.47;;;4.73;;
42226;SDS011;27892;52.378;13.122;2024-01-15T04:20:09;5.70;;;4.60;;
42226;SDS011;27892;52.378;13.122;2024-01-15T04:22:35;7.67;;;4.60;;
42226;SDS011;27892;52.378;13.122;2024-01-15T04:25:01;9.73;;;5.23;;
42226;SDS011;27892;52.378;13.122;2024-01-15T04:27:27;9.13;;;4.40;;
42226;SDS011;27892;52.378;13.122;2024-01-15T04:29:53;6.33;;;4.47;;
42226;SDS011;27892;52.378;13.122;2024-01-15T04:32:19;7.23;;;4.33;;
42226;SDS011;27892;52.378;13.122;2024-01-15T04:34:44;7.40;;;4.27;;
42226;SDS011;27892;52.378;13.122;2024-01-15T04:37:10;5.60;;;3.90;;
42226;SDS011;27892;52.378;13.122;2024-01-15T04:39:36;5.17;;;3.80;;
42226;SDS011;27892;52.378;13.122;2024-01-15T04:42:02;5.73;;;4.10;;
42226;SDS011;27892;52.378;13.122;2024-01-15T04:44:28;7.23;;;4.30;;
42226;SDS011;27892;52.378;13.122;2024-01-15T04:46:54;7.20;;;4.03;;
42226;SDS011;27892;52.378;13.122;2024-01-15T04:49:20;9.57;;;4.23;;
42226;SDS011;27892;52.378;13.122;2024-01-15T04:51:45;5.57;;;3.90;;
42226;SDS011;27892;52.378;13.122;2024-01-15T04:54:11;6.83;;;4.40;;
42226;SDS011;27892;52.378;13.122;2024-01-15T04:56:37;7.20;;;3.63;;
42226;SDS011;27892;52.378;13.122;2024-01-15T04:59:03;9.07;;;3.90;;
42226;SDS011;27892;52.378;13.122;2024-01-15T05:01:32;6.83;;;3.77;;
42226;SDS011;27892;52.378;13.122;2024-01-15T05:03:57;5.33;;;3.80;;
42226;SDS011;27892;52.378;13.122;2024-01-15T05:06:24;8.90;;;4.13;;
42226;SDS011;27892;52.378;13.122;2024-01-15T05:08:49;7.47;;;3.70;;
42226;SDS011;27892;52.378;13.122;2024-01-15T05:11:15;5.90;;;3.40;;
42226;SDS011;27892;52.378;13.122;2024-01-15T05:13:41;6.87;;;3.13;;
42226;SDS011;27892;52.378;13.122;2024-01-15T05:16:07;5.93;;;3.80;;
42226;SDS011;27892;52.378;13.122;2024-01-15T05:18:32;5.53;;;3.33;;
42226;SDS011;27892;52.378;13.122;2024-01-15T05:20:58;7.73;;;3.50;;
42226;SDS011;27892;52.378;13.122;2024-01-15T05:23:24;5.10;;;3.20;;
42226;SDS011;27892;52.378;13.122;2024-01-15T05:25:49;9.80;;;4.17;;
42226;SDS011;27892;52.378;13.122;2024-01-15T05:28:15;5.17;;;3.40;;
42226;SDS011;27892;52.378;13.122;2024-01-15T05:30:41;10.03;;;4.17;;
42226;SDS011;27892;52.378;13.122;2024-01-15T05:33:06;6.80;;;3.93;;
42226;SDS011;27892;52.378;13.122;2024-01-15T05:35:32;7.23;;;3.70;;
42226;SDS011;27892;52.378;13.122;2024-01-15T05:37:59;9.43;;;3.60;;
42226;SDS011;27892;52.378;13.122;2024-01-15T05:40:24;4.57;;;3.20;;
42226;SDS011;27892;52.378;13.122;2024-01-15T05:42:50;7.43;;;3.27;;
42226;SDS011;27892;52.378;13.122;2024-01-15T05:45:16;4.50;;;3.23;;
42226;SDS011;27892;52.378;13.122;2024-01-15T05:47:41;7.40;;;3.40;;
42226;SDS011;27892;52.378;13.122;2024-01-15T05:50:09;5.33;;;3.30;;
42226;SDS011;27892;52.378;13.122;2024-01-15T05:52:35;6.10;;;3.23;;
42226;SDS011;27892;52.378;13.122;2024-01-15T05:55:01;5.07;;;3.10;;
42226;SDS011;27892;52.378;13.122;2024-01-15T05:57:27;4.17;;;2.93;;
42226;SDS011;27892;52.378;13.122;2024-01-15T05:59:53;4.80;;;3.07;;
42226;SDS011;27892;52.378;13.122;2024-01-15T06:02:19;6.67;;;3.47;;
42226;SDS011;27892;52.378;13.122;2024-01-15T06:04:44;7.57;;;3.30;;
42226;SDS011;27892;52.378;13.122;2024-01-15T06:07:10;4.40;;;2.90;;
42226;SDS011;27892;52.378;13.122;2024-01-15T06:09:36;7.60;;;2.57;;
42226;SDS011;27892;52.378;13.122;2024-01-15T06:12:01;8.50;;;3.20;;
42226;SDS011;27892;52.378;13.122;2024-01-15T06:14:27;7.37;;;3.23;;
42226;SDS011;27892;52.378;13.122;2024-01-15T06:16:53;7.50;;;3.07;;
42226;SDS011;27892;52.378;13.122;2024-01-15T06:19:18;5.50;;;2.80;;
42226;SDS011;27892;52.378;13.122;2024-01-15T06:21:44;6.33;;;3.00;;
42226;SDS011;27892;52.378;13.122;2024-01-15T06:24:09;5.93;;;2.80;;
42226;SDS011;27892;52.378;13.122;2024-01-15T06:26:35;4.53;;;2.90;;
42226;SDS011;27892;52.378;13.122;2024-01-15T06:29:01;5.50;;;2.53;;
42226;SDS011;27892;52.378;13.122;2024-01-15T06:31:28;6.37;;;2.40;;
42226;SDS011;27892;52.378;13.122;2024-01-15T06:33:54;5.77;;;2.90;;
42226;SDS011;27892;52.378;13.122;2024-01-15T06:36:20;6.90;;;2.73;;
42226;SDS011;27892;52.378;13.122;2024-01-15T06:38:46;5.90;;;2.30;;
42226;SDS011;27892;52.378;13.122;2024-01-15T06:41:12;5.77;;;2.33;;
42226;SDS011;27892;52.378;13.122;2024-01-15T06:43:50;6.57;;;2.57;;
42226;SDS011;27892;52.378;13.122;2024-01-15T06:46:22;6.03;;;2.63;;
42226;SDS011;27892;52.378;13.122;2024-01-15T06:48:48;7.90;;;2.90;;
42226;SDS011;27892;52.378;13.122;2024-01-15T06:51:14;8.00;;;2.87;;
42226;SDS011;27892;52.378;13.122;2024-01-15T06:53:41;6.33;;;2.43;;
42226;SDS011;27892;52.378;13.122;2024-01-15T06:56:06;5.87;;;2.40;;
42226;SDS011;27892;52.378;13.122;2024-01-15T06:58:33;5.57;;;2.80;;
42226;SDS011;27892;52.378;13.122;2024-01-15T07:00:58;5.60;;;2.93;;
42226;SDS011;27892;52.378;13.122;2024-01-15T07:03:24;5.03;;;2.43;;
42226;SDS011;27892;52.378;13.122;2024-01-15T07:05:50;5.80;;;2.83;;
42226;SDS011;27892;52.378;13.122;2024-01-15T07:08:16;6.97;;;3.17;;
42226;SDS011;27892;52.378;13.122;2024-01-15T07:10:41;7.67;;;2.73;;
42226;SDS011;27892;52.378;13.122;2024-01-15T07:13:07;6.03;;;2.13;;
42226;SDS011;27892;52.378;13.122;2024-01-15T07:15:33;8.30;;;2.77;;
42226;SDS011;27892;52.378;13.122;2024-01-15T07:17:59;5.50;;;2.30;;
42226;SDS011;27892;52.378;13.122;2024-01-15T07:20:25;7.37;;;2.73;;
42226;SDS011;27892;52.378;13.122;2024-01-15T07:22:50;6.03;;;2.30;;
42226;SDS011;27892;52.378;13.122;2024-01-15T07:25:16;6.27;;;2.40;;
42226;SDS011;27892;52.378;13.122;2024-01-15T07:27:42;6.90;;;2.87;;
42226;SDS011;27892;52.378;13.122;2024-01-15T07:30:10;8.23;;;2.80;;
42226;SDS011;27892;52.378;13.122;2024-01-15T07:32:36;6.20;;;2.90;;
42226;SDS011;27892;52.378;13.122;2024-01-15T07:35:02;9.80;;;2.80;;
42226;SDS011;27892;52.378;13.122;2024-01-15T07:37:28;4.80;;;2.60;;
42226;SDS011;27892;52.378;13.122;2024-01-15T07:39:54;8.57;;;2.67;;
42226;SDS011;27892;52.378;13.122;2024-01-15T07:42:20;4.63;;;2.63;;
42226;SDS011;27892;52.378;13.122;2024-01-15T07:44:45;9.37;;;2.80;;
42226;SDS011;27892;52.378;13.122;2024-01-15T07:47:12;5.50;;;2.77;;
42226;SDS011;27892;52.378;13.122;2024-01-15T07:49:37;6.43;;;2.30;;
42226;SDS011;27892;52.378;13.122;2024-01-15T07:52:03;4.83;;;2.20;;
42226;SDS011;27892;52.378;13.122;2024-01-15T07:54:30;9.33;;;3.60;;
42226;SDS011;27892;52.378;13.122;2024-01-15T07:56:57;6.90;;;3.30;;
42226;SDS011;27892;52.378;13.122;2024-01-15T07:59:26;5.57;;;2.43;;
42226;SDS011;27892;52.378;13.122;2024-01-15T08:01:52;6.73;;;3.40;;
42226;SDS011;27892;52.378;13.122;2024-01-15T08:04:18;7.53;;;2.90;;
42226;SDS011;27892;52.378;13.122;2024-01-15T08:06:44;4.70;;;2.33;;
42226;SDS011;27892;52.378;13.122;2024-01-15T08:09:11;4.43;;;2.40;;
42226;SDS011;27892;52.378;13.122;2024-01-15T08:11:41;5.67;;;2.50;;
42226;SDS011;27892;52.378;13.122;2024-01-15T08:14:10;6.20;;;2.60;;
42226;SDS011;27892;52.378;13.122;2024-01-15T08:16:36;7.43;;;2.77;;
42226;SDS011;27892;52.378;13.122;2024-01-15T08:19:02;5.03;;;2.53;;
42226;SDS011;27892;52.378;13.122;2024-01-15T08:21:28;6.83;;;2.80;;
42226;SDS011;27892;52.378;13.122;2024-01-15T08:24:04;5.47;;;2.40;;
42226;SDS011;27892;52.378;13.122;2024-01-15T08:26:30;9.30;;;2.97;;
42226;SDS011;27892;52.378;13.122;2024-01-15T08:28:57;8.30;;;2.70;;
42226;SDS011;27892;52.378;13.122;2024-01-15T08:31:23;4.63;;;2.47;;
42226;SDS011;27892;52.378;13.122;2024-01-15T08:33:48;4.17;;;2.27;;
42226;SDS011;27892;52.378;13.122;2024-01-15T08:36:14;6.27;;;2.57;;
42226;SDS011;27892;52.378;13.122;2024-01-15T08:38:39;4.73;;;2.37;;
42226;SDS011;27892;52.378;13.122;2024-01-15T08:41:05;6.30;;;2.20;;
42226;SDS011;27892;52.378;13.122;2024-01-15T08:43:33;2.60;;;2.20;;
42226;SDS011;27892;52.378;13.122;2024-01-15T08:45:59;3.60;;;2.30;;
42226;SDS011;27892;52.378;13.122;2024-01-15T08:48:25;7.07;;;2.80;;
42226;SDS011;27892;52.378;13.122;2024-01-15T08:50:54;3.17;;;2.00;;
42226;SDS011;27892;52.378;13.122;2024-01-15T08:53:20;4.80;;;2.40;;
42226;SDS011;27892;52.378;13.122;2024-01-15T08:55:46;5.00;;;2.60;;
42226;SDS011;27892;52.378;13.122;2024-01-15T08:58:13;5.43;;;2.70;;
42226;SDS011;27892;52.378;13.122;2024-01-15T09:00:39;7.20;;;2.83;;
42226;SDS011;27892;52.378;13.122;2024-01-15T09:03:05;3.40;;;2.27;;
42226;SDS011;27892;52.378;13.122;2024-01-15T09:05:31;5.77;;;2.53;;
42226;SDS011;27892;52.378;13.122;2024-01-15T09:07:56;5.87;;;2.57;;
42226;SDS011;27892;52.378;13.122;2024-01-15T09:10:22;4.13;;;2.53;;
42226;SDS011;27892;52.378;13.122;2024-01-15T09:12:48;7.40;;;2.50;;
42226;SDS011;27892;52.378;13.122;2024-01-15T09:15:16;4.60;;;2.40;;
42226;SDS011;27892;52.378;13.122;2024-01-15T09:17:42;4.77;;;2.40;;
42226;SDS011;27892;52.378;13.122;2024-01-15T09:20:08;3.57;;;2.30;;
42226;SDS011;27892;52.378;13.122;2024-01-15T09:22:35;6.70;;;2.90;;
42226;SDS011;27892;52.378;13.122;2024-01-15T09:25:04;6.83;;;3.27;;
42226;SDS011;27892;52.378;13.122;2024-01-15T09:27:30;4.37;;;2.20;;
42226;SDS011;27892;52.378;13.122;2024-01-15T09:29:56;7.00;;;2.60;;
42226;SDS011;27892;52.378;13.122;2024-01-15T09:32:21;6.73;;;2.70;;
42226;SDS011;27892;52.378;13.122;2024-01-15T09:34:47;4.83;;;2.47;;
42226;SDS011;27892;52.378;13.122;2024-01-15T09:37:13;6.00;;;2.60;;
42226;SDS011;27892;52.378;13.122;2024-01-15T09:39:40;6.00;;;2.43;;
42226;SDS011;27892;52.378;13.122;2024-01-15T09:42:06;5.77;;;2.30;;
42226;SDS011;27892;52.378;13.122;2024-01-15T09:44:33;4.17;;;2.70;;
42226;SDS011;27892;52.378;13.122;2024-01-15T09:46:59;2.97;;;2.40;;
42226;SDS011;27892;52.378;13.122;2024-01-15T09:49:25;4.20;;;2.43;;
42226;SDS011;27892;52.378;13.122;2024-01-15T09:51:51;4.27;;;2.20;;
42226;SDS011;27892;52.378;13.122;2024-01-15T09:54:17;6.60;;;2.37;;
42226;SDS011;27892;52.378;13.122;2024-01-15T09:56:46;2.30;;;2.10;;
42226;SDS011;27892;52.378;13.122;2024-01-15T09:59:18;5.10;;;2.30;;
42226;SDS011;27892;52.378;13.122;2024-01-15T10:01:45;5.07;;;2.27;;
42226;SDS011;27892;52.378;13.122;2024-01-15T10:04:13;4.80;;;2.60;;
42226;SDS011;27892;52.378;13.122;2024-01-15T10:06:39;4.20;;;2.63;;
42226;SDS011;27892;52.378;13.122;2024-01-15T10:09:10;5.50;;;2.50;;
42226;SDS011;27892;52.378;13.122;2024-01-15T10:11:39;2.47;;;2.10;;
42226;SDS011;27892;52.378;13.122;2024-01-15T10:14:10;2.33;;;1.97;;
42226;SDS011;27892;52.378;13.122;2024-01-15T10:16:39;3.80;;;2.77;;
42226;SDS011;27892;52.378;13.122;2024-01-15T10:19:05;5.43;;;3.90;;
42226;SDS011;27892;52.378;13.122;2024-01-15T10:21:32;6.10;;;2.60;;
42226;SDS011;27892;52.378;13.122;2024-01-15T10:24:01;4.80;;;2.50;;
42226;SDS011;27892;52.378;13.122;2024-01-15T10:26:27;5.27;;;2.63;;
42226;SDS011;27892;52.378;13.122;2024-01-15T10:28:53;3.07;;;2.40;;
42226;SDS011;27892;52.378;13.122;2024-01-15T10:31:19;4.23;;;2.27;;
42226;SDS011;27892;52.378;13.122;2024-01-15T10:33:47;4.67;;;2.60;;
42226;SDS011;27892;52.378;13.122;2024-01-15T10:36:13;3.67;;;2.60;;
42226;SDS011;27892;52.378;13.122;2024-01-15T10:38:41;36.77;;;18.63;;
42226;SDS011;27892;52.378;13.122;2024-01-15T10:41:11;5.73;;;4.33;;
42226;SDS011;27892;52.378;13.122;2024-01-15T10:43:37;5.20;;;2.67;;
42226;SDS011;27892;52.378;13.122;2024-01-15T10:46:03;3.30;;;2.33;;
42226;SDS011;27892;52.378;13.122;2024-01-15T10:48:29;3.73;;;2.37;;
42226;SDS011;27892;52.378;13.122;2024-01-15T10:50:59;4.30;;;2.27;;
42226;SDS011;27892;52.378;13.122;2024-01-15T10:53:24;3.60;;;2.30;;
42226;SDS011;27892;52.378;13.122;2024-01-15T10:55:51;2.70;;;2.20;;
42226;SDS011;27892;52.378;13.122;2024-01-15T10:58:18;3.73;;;2.03;;
42226;SDS011;27892;52.378;13.122;2024-01-15T11:00:45;3.60;;;2.13;;
42226;SDS011;27892;52.378;13.122;2024-01-15T11:03:11;3.67;;;2.40;;
42226;SDS011;27892;52.378;13.122;2024-01-15T11:05:37;5.03;;;2.50;;
42226;SDS011;27892;52.378;13.122;2024-01-15T11:08:05;2.77;;;1.97;;
42226;SDS011;27892;52.378;13.122;2024-01-15T11:10:37;2.73;;;2.30;;
42226;SDS011;27892;52.378;13.122;2024-01-15T11:19:12;4.57;;;2.63;;
42226;SDS011;27892;52.378;13.122;2024-01-15T11:21:22;2.90;;;2.40;;
42226;SDS011;27892;52.378;13.122;2024-01-15T11:23:51;4.73;;;2.80;;
42226;SDS011;27892;52.378;13.122;2024-01-15T11:28:57;2.60;;;2.33;;
42226;SDS011;27892;52.378;13.122;2024-01-15T11:31:28;2.53;;;2.33;;
42226;SDS011;27892;52.378;13.122;2024-01-15T11:34:14;4.50;;;2.60;;
42226;SDS011;27892;52.378;13.122;2024-01-15T11:41:55;3.00;;;2.67;;
42226;SDS011;27892;52.378;13.122;2024-01-15T11:44:25;2.90;;;2.60;;
42226;SDS011;27892;52.378;13.122;2024-01-15T11:49:34;2.50;;;2.30;;
42226;SDS011;27892;52.378;13.122;2024-01-15T11:52:03;3.50;;;2.20;;
42226;SDS011;27892;52.378;13.122;2024-01-15T11:54:29;2.57;;;2.30;;
42226;SDS011;27892;52.378;13.122;2024-01-15T11:57:01;2.40;;;2.20;;
42226;SDS011;27892;52.378;13.122;2024-01-15T11:59:33;3.27;;;2.50;;
42226;SDS011;27892;52.378;13.122;2024-01-15T12:01:59;2.47;;;2.27;;
42226;SDS011;27892;52.378;13.122;2024-01-15T12:04:25;2.67;;;2.47;;
42226;SDS011;27892;52.378;13.122;2024-01-15T12:06:51;3.00;;;2.33;;
42226;SDS011;27892;52.378;13.122;2024-01-15T12:09:20;2.70;;;2.50;;
42226;SDS011;27892;52.378;13.122;2024-01-15T12:11:48;2.30;;;2.10;;
42226;SDS011;27892;52.378;13.122;2024-01-15T12:14:20;2.47;;;2.27;;
42226;SDS011;27892;52.378;13.122;2024-01-15T12:16:47;2.70;;;2.50;;
42226;SDS011;27892;52.378;13.122;2024-01-15T12:19:13;3.07;;;2.77;;
42226;SDS011;27892;52.378;13.122;2024-01-15T12:21:40;3.37;;;2.70;;
42226;SDS011;27892;52.378;13.122;2024-01-15T12:24:09;2.57;;;2.37;;
42226;SDS011;27892;52.378;13.122;2024-01-15T12:26:35;2.63;;;2.43;;
42226;SDS011;27892;52.378;13.122;2024-01-15T12:29:01;3.20;;;2.40;;
42226;SDS011;27892;52.378;13.122;2024-01-15T12:31:27;2.47;;;2.27;;
42226;SDS011;27892;52.378;13.122;2024-01-15T12:33:55;2.40;;;2.20;;
42226;SDS011;27892;52.378;13.122;2024-01-15T12:36:21;2.47;;;2.37;;
42226;SDS011;27892;52.378;13.122;2024-01-15T12:38:47;2.90;;;2.70;;
42226;SDS011;27892;52.378;13.122;2024-01-15T12:41:13;2.47;;;2.27;;
42226;SDS011;27892;52.378;13.122;2024-01-15T12:43:38;2.70;;;2.60;;
42226;SDS011;27892;52.378;13.122;2024-01-15T12:46:05;3.50;;;2.50;;
42226;SDS011;27892;52.378;13.122;2024-01-15T12:48:31;3.10;;;2.80;;
42226;SDS011;27892;52.378;13.122;2024-01-15T12:50:57;4.87;;;3.40;;
42226;SDS011;27892;52.378;13.122;2024-01-15T12:53:23;6.37;;;4.90;;
42226;SDS011;27892;52.378;13.122;2024-01-15T12:55:48;2.83;;;2.60;;
42226;SDS011;27892;52.378;13.122;2024-01-15T12:58:14;2.77;;;2.40;;
42226;SDS011;27892;52.378;13.122;2024-01-15T13:00:40;4.00;;;3.10;;
42226;SDS011;27892;52.378;13.122;2024-01-15T13:03:05;3.37;;;3.07;;
42226;SDS011;27892;52.378;13.122;2024-01-15T13:05:32;5.90;;;3.10;;
42226;SDS011;27892;52.378;13.122;2024-01-15T13:07:59;3.30;;;3.00;;
42226;SDS011;27892;52.378;13.122;2024-01-15T13:10:24;3.77;;;2.93;;
42226;SDS011;27892;52.378;13.122;2024-01-15T13:12:50;3.20;;;2.90;;
42226;SDS011;27892;52.378;13.122;2024-01-15T13:15:16;3.10;;;2.80;;
42226;SDS011;27892;52.378;13.122;2024-01-15T13:17:42;3.27;;;2.93;;
42226;SDS011;27892;52.378;13.122;2024-01-15T13:20:09;5.40;;;2.80;;
42226;SDS011;27892;52.378;13.122;2024-01-15T13:22:36;5.33;;;3.47;;
42226;SDS011;27892;52.378;13.122;2024-01-15T13:25:04;5.00;;;3.10;;
42226;SDS011;27892;52.378;13.122;2024-01-15T13:27:32;5.67;;;3.47;;
42226;SDS011;27892;52.378;13.122;2024-01-15T13:29:59;4.33;;;3.03;;
42226;SDS011;27892;52.378;13.122;2024-01-15T13:32:25;6.90;;;3.03;;
42226;SDS011;27892;52.378;13.122;2024-01-15T13:34:53;5.83;;;3.67;;
42226;SDS011;27892;52.378;13.122;2024-01-15T13:37:20;3.83;;;3.10;;
42226;SDS011;27892;52.378;13.122;2024-01-15T13:39:46;3.60;;;3.30;;
42226;SDS011;27892;52.378;13.122;2024-01-15T13:42:11;5.07;;;3.40;;
42226;SDS011;27892;52.378;13.122;2024-01-15T13:44:37;6.40;;;3.23;;
42226;SDS011;27892;52.378;13.122;2024-01-15T13:47:03;5.20;;;3.27;;
42226;SDS011;27892;52.378;13.122;2024-01-15T13:49:30;7.27;;;4.10;;
42226;SDS011;27892;52.378;13.122;2024-01-15T13:51:56;7.93;;;4.77;;
42226;SDS011;27892;52.378;13.122;2024-01-15T13:54:22;4.97;;;3.90;;
42226;SDS011;27892;52.378;13.122;2024-01-15T13:56:48;7.93;;;3.50;;
42226;SDS011;27892;52.378;13.122;2024-01-15T13:59:14;5.73;;;3.30;;
42226;SDS011;27892;52.378;13.122;2024-01-15T14:01:40;7.70;;;3.90;;
42226;SDS011;27892;52.378;13.122;2024-01-15T14:04:07;6.37;;;3.47;;
42226;SDS011;27892;52.378;13.122;2024-01-15T14:06:32;6.83;;;3.67;;
42226;SDS011;27892;52.378;13.122;2024-01-15T14:08:58;8.33;;;3.07;;
42226;SDS011;27892;52.378;13.122;2024-01-15T14:11:24;3.87;;;2.60;;
42226;SDS011;27892;52.378;13.122;2024-01-15T14:13:50;7.57;;;3.30;;
42226;SDS011;27892;52.378;13.122;2024-01-15T14:16:16;6.07;;;3.07;;
42226;SDS011;27892;52.378;13.122;2024-01-15T14:18:41;6.03;;;3.37;;
42226;SDS011;27892;52.378;13.122;2024-01-15T14:21:07;4.43;;;3.30;;
42226;SDS011;27892;52.378;13.122;2024-01-15T14:23:32;4.77;;;3.17;;
42226;SDS011;27892;52.378;13.122;2024-01-15T14:25:58;4.03;;;3.00;;
42226;SDS011;27892;52.378;13.122;2024-01-15T14:28:24;3.93;;;3.00;;
42226;SDS011;27892;52.378;13.122;2024-01-15T14:30:49;4.63;;;2.97;;
42226;SDS011;27892;52.378;13.122;2024-01-15T14:33:16;4.60;;;2.93;;
42226;SDS011;27892;52.378;13.122;2024-01-15T14:35:42;5.97;;;3.40;;
42226;SDS011;27892;52.378;13.122;2024-01-15T14:38:07;7.50;;;3.20;;
42226;SDS011;27892;52.378;13.122;2024-01-15T14:40:34;4.23;;;2.80;;
42226;SDS011;27892;52.378;13.122;2024-01-15T14:43:00;7.03;;;3.07;;
42226;SDS011;27892;52.378;13.122;2024-01-15T14:45:27;5.40;;;3.27;;